Time;durP1;ratioP1;P1;durP2;ratioP2;P2;SDS_P1;SDS_P2;PMS_P1;PMS_P2;Temp;Humidity;BMP_temperature;BMP_pressure;BME280_temperature;BME280_humidity;BME280_pressure;Samples;Min_cycle;Max_cycle;Signal;HPM_P1;HPM_P2
2024/03/26 00:01:19;;;;;;;3.13;2.10;;;;;;;;;;5067480;28;20214;-84
2024/03/26 00:04:23;;;;;;;3.57;2.13;;;;;;;;;;5067710;28;20180;-84
2024/03/26 00:07:27;;;;;;;4.43;2.20;;;;;;;;;;5067166;28;20207;-84
2024/03/26 00:10:32;;;;;;;4.13;2.30;;;;;;;;;;5067092;28;20211;-84
2024/03/26 00:13:36;;;;;;;4.03;2.17;;;;;;;;;;5079250;28;20184;-84
2024/03/26 00:16:40;;;;;;;2.80;2.33;;;;;;;;;;5078502;28;20175;-84
2024/03/26 00:19:44;;;;;;;3.83;2.20;;;;;;;;;;5078471;28;20179;-85
2024/03/26 00:22:48;;;;;;;3.03;2.23;;;;;;;;;;5078945;28;20667;-85
2024/03/26 00:25:53;;;;;;;5.77;2.67;;;;;;;;;;5078594;28;20184;-86
2024/03/26 00:28:57;;;;;;;4.70;2.53;;;;;;;;;;5079010;28;20180;-85
2024/03/26 00:32:01;;;;;;;3.30;2.50;;;;;;;;;;5079016;28;20175;-85
2024/03/26 00:35:05;;;;;;;3.03;2.20;;;;;;;;;;5079639;28;20179;-84
2024/03/26 00:38:09;;;;;;;4.53;2.20;;;;;;;;;;5067031;28;20180;-84
2024/03/26 00:41:13;;;;;;;4.03;2.43;;;;;;;;;;5079108;28;20215;-86
2024/03/26 00:44:19;;;;;;;4.17;2.40;;;;;;;;;;5059169;28;20184;-84
2024/03/26 00:47:23;;;;;;;3.77;2.50;;;;;;;;;;5058449;28;20204;-84
2024/03/26 00:50:27;;;;;;;5.67;2.83;;;;;;;;;;5057363;28;20711;-84
2024/03/26 00:53:31;;;;;;;5.50;2.77;;;;;;;;;;5057666;28;20184;-85
2024/03/26 00:56:35;;;;;;;6.40;2.50;;;;;;;;;;5047084;28;20180;-84
2024/03/26 00:59:39;;;;;;;4.03;3.50;;;;;;;;;;5057813;28;20184;-85
2024/03/26 01:02:43;;;;;;;2.90;2.20;;;;;;;;;;5059025;28;20633;-84
2024/03/26 01:05:55;;;;;;;5.17;2.53;;;;;;;;;;5058172;28;20188;-84
2024/03/26 01:09:01;;;;;;;3.63;2.13;;;;;;;;;;5047725;28;20176;-84
2024/03/26 01:12:05;;;;;;;5.17;2.33;;;;;;;;;;5047054;28;20192;-84
2024/03/26 01:15:09;;;;;;;4.10;2.17;;;;;;;;;;5059309;28;20188;-84
2024/03/26 01:18:14;;;;;;;4.07;2.37;;;;;;;;;;5058128;28;20180;-84
2024/03/26 01:21:18;;;;;;;3.27;2.30;;;;;;;;;;5057422;28;20228;-84
2024/03/26 01:24:22;;;;;;;3.73;2.30;;;;;;;;;;5046780;28;20184;-85
2024/03/26 01:27:27;;;;;;;5.40;2.37;;;;;;;;;;5058667;28;20660;-84
2024/03/26 01:30:32;;;;;;;6.03;2.37;;;;;;;;;;5057957;28;20219;-85
2024/03/26 01:33:36;;;;;;;5.33;2.40;;;;;;;;;;5059024;28;20626;-84
2024/03/26 01:36:40;;;;;;;3.10;2.53;;;;;;;;;;5046474;28;20184;-84
2024/03/26 01:39:44;;;;;;;4.83;2.57;;;;;;;;;;5057071;28;20188;-84
2024/03/26 01:42:50;;;;;;;4.00;2.77;;;;;;;;;;5045600;28;20188;-84
2024/03/26 01:45:54;;;;;;;2.83;2.47;;;;;;;;;;5056470;28;20541;-84
2024/03/26 01:48:58;;;;;;;6.83;2.43;;;;;;;;;;5058332;28;20216;-83
2024/03/26 01:52:02;;;;;;;3.97;2.40;;;;;;;;;;5056948;28;20180;-82
2024/03/26 01:55:07;;;;;;;3.30;2.50;;;;;;;;;;5044776;28;20247;-83
2024/03/26 01:58:12;;;;;;;8.10;2.73;;;;;;;;;;5033352;28;20545;-85
2024/03/26 02:01:16;;;;;;;3.40;2.40;;;;;;;;;;5055376;28;20219;-82
2024/03/26 02:04:20;;;;;;;4.13;2.37;;;;;;;;;;5056404;28;20196;-83
2024/03/26 02:07:25;;;;;;;3.43;2.40;;;;;;;;;;5056143;28;20208;-82
2024/03/26 02:10:30;;;;;;;3.10;2.67;;;;;;;;;;5056766;28;20212;-83
2024/03/26 02:13:34;;;;;;;4.40;2.40;;;;;;;;;;5032990;28;20180;-83
2024/03/26 02:16:38;;;;;;;5.57;2.33;;;;;;;;;;5045651;28;20184;-84
2024/03/26 02:19:42;;;;;;;3.67;2.67;;;;;;;;;;5056570;28;20173;-83
2024/03/26 02:22:47;;;;;;;3.27;2.47;;;;;;;;;;5044381;28;20543;-83
2024/03/26 02:25:51;;;;;;;2.97;2.17;;;;;;;;;;5056006;28;20176;-83
2024/03/26 02:28:55;;;;;;;4.50;2.57;;;;;;;;;;5055846;28;20207;-82
2024/03/26 02:32:01;;;;;;;3.97;2.60;;;;;;;;;;5056385;28;20180;-82
2024/03/26 02:35:05;;;;;;;3.67;2.63;;;;;;;;;;5055836;28;20180;-83
2024/03/26 02:38:10;;;;;;;4.27;2.47;;;;;;;;;;5055102;28;20177;-83
2024/03/26 02:41:14;;;;;;;3.93;2.40;;;;;;;;;;5055345;28;20216;-83
2024/03/26 02:44:18;;;;;;;2.60;2.20;;;;;;;;;;5044067;28;20189;-82
2024/03/26 02:47:22;;;;;;;4.93;2.67;;;;;;;;;;5043360;28;20212;-83
2024/03/26 02:50:26;;;;;;;3.80;2.40;;;;;;;;;;5056126;28;20220;-82
2024/03/26 02:53:30;;;;;;;4.10;2.47;;;;;;;;;;5043495;28;20539;-83
2024/03/26 02:56:34;;;;;;;2.80;2.40;;;;;;;;;;5055797;28;20539;-83
2024/03/26 02:59:38;;;;;;;4.40;2.63;;;;;;;;;;5044615;28;20531;-82
2024/03/26 03:02:43;;;;;;;3.17;2.50;;;;;;;;;;5043780;28;20540;-83
2024/03/26 03:05:47;;;;;;;3.40;2.70;;;;;;;;;;5055141;28;20549;-82
2024/03/26 03:08:51;;;;;;;2.53;2.10;;;;;;;;;;5056619;28;20602;-82
2024/03/26 03:11:55;;;;;;;5.37;2.47;;;;;;;;;;5054530;28;20606;-83
2024/03/26 03:14:59;;;;;;;4.70;2.60;;;;;;;;;;5043838;28;20180;-83
2024/03/26 03:18:04;;;;;;;4.63;3.03;;;;;;;;;;5043688;28;20539;-82
2024/03/26 03:21:08;;;;;;;4.93;2.53;;;;;;;;;;5055191;28;20224;-82
2024/03/26 03:24:13;;;;;;;5.03;2.90;;;;;;;;;;5062015;28;20199;-84
2024/03/26 03:27:18;;;;;;;4.20;2.63;;;;;;;;;;5066656;28;20550;-84
2024/03/26 03:30:22;;;;;;;5.57;2.80;;;;;;;;;;5062425;28;20623;-83
2024/03/26 03:33:26;;;;;;;2.70;2.43;;;;;;;;;;5057719;28;20538;-84
2024/03/26 03:36:31;;;;;;;3.27;2.63;;;;;;;;;;5045192;28;20550;-84
2024/03/26 03:39:35;;;;;;;6.20;2.43;;;;;;;;;;5056758;28;20531;-84
2024/03/26 03:42:38;;;;;;;3.30;2.40;;;;;;;;;;5055677;28;20994;-83
2024/03/26 03:45:43;;;;;;;3.67;2.73;;;;;;;;;;5056983;28;20542;-84
2024/03/26 03:48:47;;;;;;;4.63;2.63;;;;;;;;;;5045333;28;20590;-84
2024/03/26 03:51:51;;;;;;;2.57;2.33;;;;;;;;;;5046023;28;20614;-84
2024/03/26 03:54:56;;;;;;;3.50;2.40;;;;;;;;;;5045598;28;20531;-84
2024/03/26 03:58:00;;;;;;;3.40;2.50;;;;;;;;;;5046083;28;20535;-84
2024/03/26 04:01:04;;;;;;;3.57;2.50;;;;;;;;;;5057786;28;20615;-85
2024/03/26 04:04:09;;;;;;;4.30;2.80;;;;;;;;;;5045490;28;20544;-84
2024/03/26 04:07:14;;;;;;;5.07;2.63;;;;;;;;;;5046170;28;20543;-84
2024/03/26 04:10:18;;;;;;;3.10;2.37;;;;;;;;;;5045199;28;20629;-84
2024/03/26 04:13:22;;;;;;;3.30;2.50;;;;;;;;;;5058974;28;20535;-82
2024/03/26 04:16:26;;;;;;;3.00;2.43;;;;;;;;;;5060183;28;20543;-82
2024/03/26 04:19:31;;;;;;;5.30;2.73;;;;;;;;;;5062433;28;20539;-83
2024/03/26 04:22:35;;;;;;;4.63;2.60;;;;;;;;;;5052206;28;20535;-84
2024/03/26 04:25:40;;;;;;;4.20;2.50;;;;;;;;;;5066666;28;20538;-83
2024/03/26 04:28:44;;;;;;;4.63;2.80;;;;;;;;;;5068191;28;20590;-84
2024/03/26 04:31:48;;;;;;;3.70;2.87;;;;;;;;;;5045161;28;20617;-84
2024/03/26 04:34:53;;;;;;;4.70;2.60;;;;;;;;;;5066739;28;20543;-82
2024/03/26 04:37:57;;;;;;;4.40;2.70;;;;;;;;;;5067219;28;20543;-84
2024/03/26 04:41:02;;;;;;;5.03;2.67;;;;;;;;;;5068298;28;20618;-84
2024/03/26 04:44:06;;;;;;;2.70;2.50;;;;;;;;;;5067617;28;21083;-84
2024/03/26 04:47:10;;;;;;;4.67;3.47;;;;;;;;;;5065368;28;20558;-84
2024/03/26 04:50:14;;;;;;;6.70;2.70;;;;;;;;;;5065550;28;20603;-83
2024/03/26 04:53:19;;;;;;;5.47;2.97;;;;;;;;;;5053730;28;20535;-84
2024/03/26 04:56:23;;;;;;;3.97;2.93;;;;;;;;;;5053755;28;20900;-83
2024/03/26 04:59:27;;;;;;;4.93;2.83;;;;;;;;;;5065998;28;21075;-83
2024/03/26 05:02:31;;;;;;;3.50;2.80;;;;;;;;;;5064379;28;20539;-82
2024/03/26 05:05:37;;;;;;;4.57;3.33;;;;;;;;;;5063753;28;20539;-84
2024/03/26 05:08:41;;;;;;;8.07;3.33;;;;;;;;;;5063913;28;20602;-84
2024/03/26 05:11:46;;;;;;;7.73;3.50;;;;;;;;;;5062675;28;20654;-84
2024/03/26 05:14:49;;;;;;;10.13;4.63;;;;;;;;;;5063031;28;20562;-83
2024/03/26 05:17:54;;;;;;;5.93;3.70;;;;;;;;;;5064175;28;20559;-83
2024/03/26 05:20:59;;;;;;;4.57;3.03;;;;;;;;;;5051469;28;20641;-84
2024/03/26 05:24:03;;;;;;;5.43;3.10;;;;;;;;;;5063039;28;20540;-83
2024/03/26 05:27:08;;;;;;;5.20;3.20;;;;;;;;;;5062031;28;20536;-83
2024/03/26 05:30:13;;;;;;;4.13;2.83;;;;;;;;;;5061684;28;21183;-82
2024/03/26 05:33:17;;;;;;;4.87;3.20;;;;;;;;;;5063042;28;20543;-84
2024/03/26 05:36:21;;;;;;;4.17;2.80;;;;;;;;;;5061952;28;20531;-82
2024/03/26 05:39:26;;;;;;;3.77;2.80;;;;;;;;;;5050312;28;20535;-82
2024/03/26 05:42:30;;;;;;;2.80;2.50;;;;;;;;;;5049772;28;20547;-84
2024/03/26 05:45:36;;;;;;;3.40;2.83;;;;;;;;;;5061304;28;20543;-82
2024/03/26 05:48:40;;;;;;;4.67;2.63;;;;;;;;;;5060443;28;20583;-82
2024/03/26 05:51:44;;;;;;;7.07;2.60;;;;;;;;;;5061303;28;20978;-83
2024/03/26 05:54:52;;;;;;;3.53;2.57;;;;;;;;;;5053267;28;20543;-82
2024/03/26 05:57:59;;;;;;;3.53;2.67;;;;;;;;;;5064248;28;20539;-84
2024/03/26 06:01:09;;;;;;;3.03;2.53;;;;;;;;;;5041343;28;20610;-84
2024/03/26 06:04:14;;;;;;;5.60;2.43;;;;;;;;;;5058500;28;20189;-82
2024/03/26 06:07:18;;;;;;;3.70;2.67;;;;;;;;;;5058423;28;20180;-82
2024/03/26 06:10:22;;;;;;;3.87;2.80;;;;;;;;;;5058960;28;20228;-82
2024/03/26 06:13:27;;;;;;;3.17;2.30;;;;;;;;;;5046833;28;20184;-82
2024/03/26 06:16:31;;;;;;;6.47;3.10;;;;;;;;;;5058656;28;20641;-82
2024/03/26 06:19:35;;;;;;;4.07;2.50;;;;;;;;;;5046848;28;20177;-83
2024/03/26 06:22:39;;;;;;;6.00;2.60;;;;;;;;;;5057762;28;20184;-83
2024/03/26 06:25:44;;;;;;;3.73;2.37;;;;;;;;;;5057711;28;20652;-83
2024/03/26 06:28:48;;;;;;;2.63;2.00;;;;;;;;;;5057243;28;20199;-83
2024/03/26 06:31:52;;;;;;;4.83;2.50;;;;;;;;;;5057557;28;20219;-85
2024/03/26 06:34:56;;;;;;;3.90;2.50;;;;;;;;;;5047216;28;20645;-83
2024/03/26 06:38:01;;;;;;;3.53;2.10;;;;;;;;;;5058718;28;20180;-83
2024/03/26 06:41:05;;;;;;;3.37;2.37;;;;;;;;;;5056649;28;20216;-86
2024/03/26 06:44:10;;;;;;;3.53;2.10;;;;;;;;;;5057688;28;20180;-84
2024/03/26 06:47:14;;;;;;;2.50;2.00;;;;;;;;;;5056627;28;20637;-83
2024/03/26 06:50:18;;;;;;;2.83;2.20;;;;;;;;;;5034817;28;20224;-83
2024/03/26 06:53:23;;;;;;;4.33;2.20;;;;;;;;;;5058631;28;20184;-83
2024/03/26 06:56:27;;;;;;;3.33;2.20;;;;;;;;;;5059019;28;20184;-84
2024/03/26 06:59:32;;;;;;;3.00;2.10;;;;;;;;;;5058754;28;20180;-83
2024/03/26 07:02:36;;;;;;;2.60;2.30;;;;;;;;;;5046496;28;20176;-82
2024/03/26 07:05:40;;;;;;;3.00;1.90;;;;;;;;;;5058818;28;20183;-83
2024/03/26 07:08:46;;;;;;;3.37;2.07;;;;;;;;;;5047254;28;20208;-84
2024/03/26 07:11:51;;;;;;;3.37;2.07;;;;;;;;;;5057674;28;20216;-83
2024/03/26 07:14:55;;;;;;;4.87;2.07;;;;;;;;;;5046820;28;20181;-82
2024/03/26 07:17:59;;;;;;;3.33;2.00;;;;;;;;;;5057164;28;20177;-82
2024/03/26 07:21:05;;;;;;;2.53;1.90;;;;;;;;;;5044886;28;20219;-84
2024/03/26 07:24:12;;;;;;;2.40;1.80;;;;;;;;;;5045926;28;20184;-83
2024/03/26 07:27:16;;;;;;;6.73;3.10;;;;;;;;;;5045801;28;20180;-82
2024/03/26 07:30:21;;;;;;;2.97;2.27;;;;;;;;;;5034494;28;20227;-83
2024/03/26 07:33:26;;;;;;;2.50;1.80;;;;;;;;;;5034256;28;20621;-83
2024/03/26 07:36:30;;;;;;;2.43;1.60;;;;;;;;;;5057164;28;20184;-83
2024/03/26 07:39:35;;;;;;;2.90;1.97;;;;;;;;;;5057367;28;20172;-83
2024/03/26 07:42:39;;;;;;;2.87;1.80;;;;;;;;;;5045926;28;20188;-83
2024/03/26 07:45:44;;;;;;;2.40;1.80;;;;;;;;;;5034064;28;20180;-82
2024/03/26 07:48:48;;;;;;;3.03;1.97;;;;;;;;;;5058207;28;20180;-84
2024/03/26 07:51:53;;;;;;;10.40;6.03;;;;;;;;;;5044589;28;20227;-84
2024/03/26 07:54:57;;;;;;;10.70;4.13;;;;;;;;;;5044709;28;20180;-84
2024/03/26 07:58:04;;;;;;;7.90;2.93;;;;;;;;;;5046094;28;20188;-85
2024/03/26 08:01:08;;;;;;;2.43;2.00;;;;;;;;;;5061892;28;20219;-85
2024/03/26 08:04:12;;;;;;;2.53;1.87;;;;;;;;;;5060507;28;20184;-84
2024/03/26 08:07:16;;;;;;;2.47;1.80;;;;;;;;;;5061621;28;20184;-84
2024/03/26 08:10:21;;;;;;;3.60;2.30;;;;;;;;;;5060890;28;20231;-83
2024/03/26 08:13:26;;;;;;;2.23;1.80;;;;;;;;;;5048882;28;20184;-83
2024/03/26 08:16:30;;;;;;;3.63;1.90;;;;;;;;;;5049224;28;20184;-84
2024/03/26 08:19:34;;;;;;;3.30;2.10;;;;;;;;;;5037691;28;20181;-85
2024/03/26 08:22:38;;;;;;;4.20;1.73;;;;;;;;;;5059877;28;20176;-84
2024/03/26 08:25:42;;;;;;;2.57;2.00;;;;;;;;;;5059847;28;20180;-84
2024/03/26 08:28:47;;;;;;;4.40;2.10;;;;;;;;;;5065152;28;20184;-85
2024/03/26 08:31:53;;;;;;;2.40;2.00;;;;;;;;;;5037880;28;20216;-85
2024/03/26 08:34:57;;;;;;;10.60;2.03;;;;;;;;;;5048925;28;20184;-84
2024/03/26 08:38:01;;;;;;;2.63;1.83;;;;;;;;;;5059800;28;20176;-84
2024/03/26 08:41:08;;;;;;;2.80;1.53;;;;;;;;;;5048531;28;20545;-84
2024/03/26 08:44:16;;;;;;;3.07;1.60;;;;;;;;;;5059714;28;20176;-86
2024/03/26 08:47:21;;;;;;;5.20;1.90;;;;;;;;;;5047959;28;20188;-85
2024/03/26 08:50:25;;;;;;;1.73;1.50;;;;;;;;;;5037168;28;20227;-85
2024/03/26 08:53:30;;;;;;;2.47;1.70;;;;;;;;;;5049280;28;20188;-85
2024/03/26 08:56:34;;;;;;;2.50;1.53;;;;;;;;;;5039006;28;20180;-84
2024/03/26 08:59:43;;;;;;;2.10;1.63;;;;;;;;;;5063449;28;20200;-84
2024/03/26 09:02:47;;;;;;;2.70;1.80;;;;;;;;;;5064277;28;20193;-83
2024/03/26 09:05:53;;;;;;;4.03;1.93;;;;;;;;;;5064853;28;20176;-83
2024/03/26 09:08:58;;;;;;;2.33;1.57;;;;;;;;;;5063953;28;20184;-83
2024/03/26 09:12:02;;;;;;;2.57;1.63;;;;;;;;;;5063263;28;20168;-84
2024/03/26 09:15:07;;;;;;;2.43;1.70;;;;;;;;;;5058879;28;20180;-83
2024/03/26 09:18:11;;;;;;;2.37;1.60;;;;;;;;;;5047086;28;20192;-83
2024/03/26 09:21:18;;;;;;;3.00;1.70;;;;;;;;;;5057904;28;20223;-82
2024/03/26 09:24:22;;;;;;;2.43;2.00;;;;;;;;;;5046203;28;20184;-82
2024/03/26 09:27:27;;;;;;;2.93;1.60;;;;;;;;;;5058112;28;20184;-82
2024/03/26 09:30:31;;;;;;;2.30;1.50;;;;;;;;;;5058099;28;20228;-82
2024/03/26 09:33:35;;;;;;;2.93;2.07;;;;;;;;;;5046916;28;20183;-83
2024/03/26 09:36:39;;;;;;;2.60;1.70;;;;;;;;;;5058385;28;20176;-82
2024/03/26 09:39:45;;;;;;;2.20;1.53;;;;;;;;;;5034915;28;20183;-83
2024/03/26 09:42:52;;;;;;;2.33;1.57;;;;;;;;;;5046165;28;20626;-83
2024/03/26 09:45:56;;;;;;;2.23;1.67;;;;;;;;;;5058225;28;20180;-83
2024/03/26 09:49:02;;;;;;;1.87;1.33;;;;;;;;;;5046714;28;20184;-82
2024/03/26 09:52:09;;;;;;;3.17;1.70;;;;;;;;;;5058137;28;20169;-82
2024/03/26 09:55:15;;;;;;;3.53;1.90;;;;;;;;;;5058681;28;20638;-83
2024/03/26 09:58:18;;;;;;;3.20;1.57;;;;;;;;;;5058603;28;20180;-83
2024/03/26 10:01:27;;;;;;;2.27;1.63;;;;;;;;;;5057571;28;20212;-84
2024/03/26 10:04:31;;;;;;;2.17;1.70;;;;;;;;;;5060406;28;20180;-84
2024/03/26 10:07:35;;;;;;;2.40;1.53;;;;;;;;;;5061520;28;20180;-84
2024/03/26 10:10:41;;;;;;;1.90;1.20;;;;;;;;;;5064027;28;20227;-84
2024/03/26 10:13:45;;;;;;;2.53;1.23;;;;;;;;;;5036296;28;20176;-85
2024/03/26 10:16:49;;;;;;;1.90;1.30;;;;;;;;;;5059423;28;20180;-86
2024/03/26 10:19:54;;;;;;;1.77;1.43;;;;;;;;;;5048247;28;20215;-85
2024/03/26 10:23:04;;;;;;;1.93;1.20;;;;;;;;;;5058242;28;20622;-85
2024/03/26 10:26:09;;;;;;;3.87;1.60;;;;;;;;;;5058821;28;20176;-84
2024/03/26 10:29:15;;;;;;;2.17;1.40;;;;;;;;;;5059863;28;20176;-84
2024/03/26 10:32:22;;;;;;;1.93;1.30;;;;;;;;;;5057862;28;20172;-84
2024/03/26 10:35:27;;;;;;;1.93;1.40;;;;;;;;;;5058921;28;20184;-85
2024/03/26 10:38:32;;;;;;;1.67;1.20;;;;;;;;;;5059886;28;20188;-85
2024/03/26 10:41:40;;;;;;;2.70;1.70;;;;;;;;;;5036307;28;20677;-84
2024/03/26 10:44:45;;;;;;;4.00;1.60;;;;;;;;;;5058593;28;20184;-84
2024/03/26 10:47:51;;;;;;;8.67;1.97;;;;;;;;;;5048061;28;20180;-83
2024/03/26 10:50:57;;;;;;;2.50;1.27;;;;;;;;;;5047874;28;20224;-84
2024/03/26 10:54:01;;;;;;;3.97;1.50;;;;;;;;;;5059677;28;20175;-84
2024/03/26 10:57:07;;;;;;;2.10;1.50;;;;;;;;;;5059450;28;20184;-83
2024/03/26 11:00:13;;;;;;;2.70;1.50;;;;;;;;;;5046719;28;20215;-83
2024/03/26 11:03:20;;;;;;;1.93;1.17;;;;;;;;;;5046262;28;20185;-84
2024/03/26 11:06:30;;;;;;;2.30;1.40;;;;;;;;;;5024418;28;20637;-84
2024/03/26 11:09:39;;;;;;;1.90;1.40;;;;;;;;;;5057716;28;20184;-85
2024/03/26 11:12:51;;;;;;;4.80;2.80;;;;;;;;;;5034925;28;20180;-85
2024/03/26 11:15:55;;;;;;;2.13;1.80;;;;;;;;;;5057501;28;20176;-86
2024/03/26 11:19:24;;;;;;;3.43;1.70;;;;;;;;;;5056803;28;20180;-86
2024/03/26 11:22:39;;;;;;;2.67;1.90;;;;;;;;;;5057432;28;20192;-84
2024/03/26 11:25:53;;;;;;;2.30;2.00;;;;;;;;;;5058414;28;20172;-85
2024/03/26 11:28:58;;;;;;;2.00;1.57;;;;;;;;;;5046114;28;20180;-86
2024/03/26 11:32:10;;;;;;;2.00;1.40;;;;;;;;;;5056961;28;20211;-83
2024/03/26 11:35:41;;;;;;;1.57;1.40;;;;;;;;;;5034807;28;20680;-82
2024/03/26 11:39:52;;;;;;;2.73;1.70;;;;;;;;;;5061974;28;20180;-82
2024/03/26 11:43:57;;;;;;;4.43;2.10;;;;;;;;;;5056363;28;20199;-82
2024/03/26 11:48:01;;;;;;;4.63;2.27;;;;;;;;;;5032154;28;20200;-83
2024/03/26 11:56:29;;;;;;;2.90;1.60;;;;;;;;;;5051155;28;20645;-83
2024/03/26 12:00:14;;;;;;;1.90;1.13;;;;;;;;;;5055515;28;20216;-83
2024/03/26 12:03:33;;;;;;;1.67;1.10;;;;;;;;;;5047142;28;20527;-83
2024/03/26 12:06:50;;;;;;;2.33;1.20;;;;;;;;;;5057222;28;20192;-84
2024/03/26 12:09:54;;;;;;;2.93;1.30;;;;;;;;;;5033264;28;20208;-84
2024/03/26 12:12:58;;;;;;;2.20;1.50;;;;;;;;;;5044923;28;20184;-84
2024/03/26 12:16:03;;;;;;;1.93;1.50;;;;;;;;;;5056903;28;20184;-85
2024/03/26 12:19:07;;;;;;;2.07;1.70;;;;;;;;;;5057329;28;20184;-84
2024/03/26 12:22:17;;;;;;;1.57;1.20;;;;;;;;;;5056960;28;20199;-87
2024/03/26 12:25:22;;;;;;;2.93;1.93;;;;;;;;;;5056713;28;20184;-84
2024/03/26 12:28:26;;;;;;;1.50;1.40;;;;;;;;;;5056212;28;20180;-85
2024/03/26 12:31:34;;;;;;;3.50;1.90;;;;;;;;;;5056832;28;20231;-85
2024/03/26 12:34:38;;;;;;;1.43;1.10;;;;;;;;;;5056336;28;20184;-85
2024/03/26 12:37:45;;;;;;;2.40;1.20;;;;;;;;;;5044550;28;20176;-85
2024/03/26 12:40:50;;;;;;;1.80;1.33;;;;;;;;;;5056879;28;20697;-84
2024/03/26 12:44:25;;;;;;;1.87;1.60;;;;;;;;;;5056885;28;20184;-84
2024/03/26 12:49:06;;;;;;;1.20;1.00;;;;;;;;;;5060271;28;20188;-85
2024/03/26 12:53:05;;;;;;;2.23;1.30;;;;;;;;;;5065738;28;20180;-85
2024/03/26 12:56:47;;;;;;;2.37;1.37;;;;;;;;;;5059307;28;20181;-85
2024/03/26 13:00:24;;;;;;;5.20;1.40;;;;;;;;;;5051933;28;20558;-85
2024/03/26 13:03:29;;;;;;;3.97;1.60;;;;;;;;;;5059805;28;20192;-85
2024/03/26 13:06:33;;;;;;;1.67;1.33;;;;;;;;;;5049013;28;20522;-85
2024/03/26 13:09:37;;;;;;;2.40;1.60;;;;;;;;;;5048783;28;20184;-86
2024/03/26 13:12:41;;;;;;;2.83;1.47;;;;;;;;;;5059831;28;20172;-84
2024/03/26 13:15:48;;;;;;;3.93;1.50;;;;;;;;;;5047933;28;20184;-86
2024/03/26 13:18:52;;;;;;;3.27;1.70;;;;;;;;;;5047575;28;20180;-86
2024/03/26 13:21:56;;;;;;;2.53;1.43;;;;;;;;;;5058753;28;20223;-84
2024/03/26 13:25:01;;;;;;;2.23;1.40;;;;;;;;;;5057122;28;20532;-84
2024/03/26 13:28:07;;;;;;;3.90;1.53;;;;;;;;;;5057302;28;20184;-85
2024/03/26 13:31:11;;;;;;;2.30;1.53;;;;;;;;;;5057547;28;20224;-85
2024/03/26 13:34:15;;;;;;;2.00;1.50;;;;;;;;;;5058837;28;20518;-85
2024/03/26 13:37:21;;;;;;;3.10;1.70;;;;;;;;;;5046895;28;20518;-83
2024/03/26 13:40:25;;;;;;;2.07;1.20;;;;;;;;;;5058688;28;20220;-85
2024/03/26 13:43:30;;;;;;;1.77;1.40;;;;;;;;;;5047641;28;20184;-85
2024/03/26 13:46:33;;;;;;;1.60;1.37;;;;;;;;;;5058710;28;20175;-84
2024/03/26 13:49:38;;;;;;;1.80;1.20;;;;;;;;;;5072761;23;20232;-86
2024/03/26 13:52:43;;;;;;;2.57;1.20;;;;;;;;;;5036211;28;20669;-86
2024/03/26 13:55:47;;;;;;;2.97;1.27;;;;;;;;;;5035143;28;20181;-86
2024/03/26 13:58:54;;;;;;;1.73;1.43;;;;;;;;;;5023596;28;20212;-86
2024/03/26 14:02:00;;;;;;;2.20;1.57;;;;;;;;;;5035364;28;20181;-86
2024/03/26 14:05:06;;;;;;;3.47;1.50;;;;;;;;;;5046733;28;20184;-86
2024/03/26 14:08:16;;;;;;;1.80;1.20;;;;;;;;;;5027775;28;20181;-86
2024/03/26 14:11:23;;;;;;;2.40;1.60;;;;;;;;;;5049666;28;20204;-86
2024/03/26 14:14:27;;;;;;;3.07;1.40;;;;;;;;;;5059039;28;20165;-85
2024/03/26 14:17:31;;;;;;;2.27;1.70;;;;;;;;;;5051831;28;20193;-85
2024/03/26 14:20:36;;;;;;;1.40;1.30;;;;;;;;;;5027680;28;20238;-86
2024/03/26 14:23:46;;;;;;;3.40;1.57;;;;;;;;;;5038979;28;20189;-86
2024/03/26 14:26:50;;;;;;;4.13;1.70;;;;;;;;;;5039117;28;20181;-86
2024/03/26 14:29:54;;;;;;;2.20;1.50;;;;;;;;;;5039786;28;20216;-87
2024/03/26 14:32:59;;;;;;;4.30;1.70;;;;;;;;;;5038770;28;20185;-86
2024/03/26 14:36:03;;;;;;;2.13;1.60;;;;;;;;;;5027550;28;20629;-86
2024/03/26 14:39:13;;;;;;;2.97;1.57;;;;;;;;;;5017496;28;20216;-86
2024/03/26 14:42:21;;;;;;;5.40;1.60;;;;;;;;;;5039096;28;20177;-87
2024/03/26 14:46:36;;;;;;;3.20;1.73;;;;;;;;;;5044246;28;20177;-87
2024/03/26 14:49:44;;;;;;;3.23;1.60;;;;;;;;;;5043008;28;20229;-86
2024/03/26 14:52:48;;;;;;;2.70;1.60;;;;;;;;;;5031020;28;20242;-87
2024/03/26 14:55:53;;;;;;;4.20;1.80;;;;;;;;;;5054510;28;20181;-87
2024/03/26 14:58:57;;;;;;;5.50;1.97;;;;;;;;;;5031925;28;20574;-83
2024/03/26 15:02:01;;;;;;;3.03;2.00;;;;;;;;;;5044025;28;20181;-84
2024/03/26 15:05:08;;;;;;;3.43;1.70;;;;;;;;;;5044870;28;20181;-84
2024/03/26 15:08:44;;;;;;;2.73;1.77;;;;;;;;;;5041575;28;20216;-84
2024/03/26 15:11:53;;;;;;;2.20;1.83;;;;;;;;;;5033247;28;20209;-84
2024/03/26 15:14:57;;;;;;;3.30;2.00;;;;;;;;;;5044042;28;20185;-84
2024/03/26 15:18:02;;;;;;;3.30;1.80;;;;;;;;;;5043220;28;20181;-85
2024/03/26 15:21:06;;;;;;;2.70;1.93;;;;;;;;;;5045329;28;20180;-85
2024/03/26 15:24:11;;;;;;;5.63;1.80;;;;;;;;;;5055210;28;20177;-85
2024/03/26 15:33:48;;;;;;;2.33;1.70;;;;;;;;;;5042949;28;20177;-85
2024/03/26 15:36:52;;;;;;;1.97;1.70;;;;;;;;;;5043892;28;20177;-85
2024/03/26 15:39:57;;;;;;;5.10;2.00;;;;;;;;;;5055133;28;20216;-85
2024/03/26 15:43:01;;;;;;;6.03;1.90;;;;;;;;;;5053556;28;20176;-84
2024/03/26 15:46:05;;;;;;;3.60;1.80;;;;;;;;;;5053963;28;20188;-85
2024/03/26 15:49:10;;;;;;;5.93;1.80;;;;;;;;;;5040838;28;20228;-84
2024/03/26 15:52:14;;;;;;;2.80;1.90;;;;;;;;;;5041144;28;20212;-84
2024/03/26 15:55:18;;;;;;;3.37;2.07;;;;;;;;;;5052654;28;20180;-85
2024/03/26 15:58:22;;;;;;;2.30;1.70;;;;;;;;;;5052785;28;20173;-87
2024/03/26 16:01:27;;;;;;;3.10;1.77;;;;;;;;;;5030673;28;20181;-85
2024/03/26 16:04:31;;;;;;;6.43;1.97;;;;;;;;;;5052087;28;20181;-85
2024/03/26 16:07:35;;;;;;;2.70;2.07;;;;;;;;;;5037387;28;20193;-86
2024/03/26 16:10:49;;;;;;;2.90;2.03;;;;;;;;;;5049476;28;20225;-86
2024/03/26 16:13:58;;;;;;;3.03;1.90;;;;;;;;;;5053680;28;20181;-87
2024/03/26 16:17:04;;;;;;;2.43;1.90;;;;;;;;;;5024523;28;20189;-88
2024/03/26 16:20:12;;;;;;;5.53;2.00;;;;;;;;;;5036687;28;20255;-87
2024/03/26 16:23:26;;;;;;;2.90;2.00;;;;;;;;;;5040798;28;20181;-87
2024/03/26 16:26:31;;;;;;;5.13;2.17;;;;;;;;;;5040163;28;20181;-87
2024/03/26 16:29:38;;;;;;;2.87;2.33;;;;;;;;;;5039105;28;20216;-87
2024/03/26 16:32:42;;;;;;;3.93;2.30;;;;;;;;;;5039006;28;20572;-87
2024/03/26 16:36:02;;;;;;;3.13;2.27;;;;;;;;;;5039962;28;20181;-87
2024/03/26 16:39:06;;;;;;;3.70;2.10;;;;;;;;;;5049955;28;20212;-86
2024/03/26 16:42:14;;;;;;;2.63;2.00;;;;;;;;;;5032615;28;20181;-84
2024/03/26 16:45:19;;;;;;;2.50;2.07;;;;;;;;;;5033479;28;20177;-85
2024/03/26 16:48:26;;;;;;;2.57;2.20;;;;;;;;;;5020753;28;20201;-85
2024/03/26 16:51:42;;;;;;;3.70;1.90;;;;;;;;;;5018218;28;20547;-87
2024/03/26 16:54:46;;;;;;;2.73;1.83;;;;;;;;;;5006833;28;20178;-87
2024/03/26 16:57:51;;;;;;;2.50;2.30;;;;;;;;;;5018564;28;20177;-88
2024/03/26 17:00:56;;;;;;;4.07;2.60;;;;;;;;;;4995620;28;20181;-87
2024/03/26 17:04:28;;;;;;;4.90;2.27;;;;;;;;;;5018182;28;20527;-88
2024/03/26 17:07:39;;;;;;;5.67;2.23;;;;;;;;;;5006585;28;20178;-88
2024/03/26 17:10:58;;;;;;;4.47;2.20;;;;;;;;;;5019346;28;20497;-87
2024/03/26 17:14:13;;;;;;;2.60;2.20;;;;;;;;;;5006790;28;20177;-88
2024/03/26 17:17:40;;;;;;;2.90;2.10;;;;;;;;;;5017487;28;20186;-88
2024/03/26 17:20:44;;;;;;;2.93;2.30;;;;;;;;;;5017511;28;20217;-88
2024/03/26 17:23:52;;;;;;;5.57;2.40;;;;;;;;;;5007503;28;20177;-88
2024/03/26 17:36:24;;;;;;;5.60;2.23;;;;;;;;;;5033806;28;20173;-89
2024/03/26 17:40:27;;;;;;;7.20;2.50;;;;;;;;;;5008640;28;20217;-88
2024/03/26 17:44:18;;;;;;;4.63;2.10;;;;;;;;;;5040102;28;20201;-88
2024/03/26 17:47:23;;;;;;;3.23;2.30;;;;;;;;;;5027272;28;20189;-88
2024/03/26 17:50:27;;;;;;;4.77;2.33;;;;;;;;;;5025377;28;20585;-87
2024/03/26 17:53:35;;;;;;;4.60;2.77;;;;;;;;;;5038246;28;20689;-87
2024/03/26 17:56:40;;;;;;;4.07;2.30;;;;;;;;;;5039153;28;20177;-88
2024/03/26 17:59:53;;;;;;;6.47;2.20;;;;;;;;;;5030171;28;20221;-88
2024/03/26 18:02:57;;;;;;;4.83;2.60;;;;;;;;;;5017928;28;20634;-88
2024/03/26 18:10:38;;;;;;;3.20;2.27;;;;;;;;;;5016898;28;20554;-86
2024/03/26 18:14:07;;;;;;;4.20;2.73;;;;;;;;;;5017186;28;20209;-86
2024/03/26 18:17:16;;;;;;;4.50;2.87;;;;;;;;;;5017542;28;20185;-87
2024/03/26 18:26:19;;;;;;;3.07;2.40;;;;;;;;;;5000016;28;20536;-88
2024/03/26 18:31:30;;;;;;;3.90;2.73;;;;;;;;;;5005388;28;20229;-88
2024/03/26 18:34:43;;;;;;;3.47;2.43;;;;;;;;;;4998935;28;20520;-88
2024/03/26 18:38:23;;;;;;;5.97;2.60;;;;;;;;;;4986534;28;20189;-86
2024/03/26 18:41:32;;;;;;;5.37;2.40;;;;;;;;;;4998765;28;20174;-88
2024/03/26 18:44:39;;;;;;;3.13;2.60;;;;;;;;;;4998166;28;20182;-88
2024/03/26 18:47:43;;;;;;;6.23;2.77;;;;;;;;;;4997580;28;20178;-88
2024/03/26 18:50:59;;;;;;;4.97;3.07;;;;;;;;;;4998625;28;20205;-88
2024/03/26 18:54:04;;;;;;;5.93;2.90;;;;;;;;;;4986307;28;20215;-88
2024/03/26 18:57:12;;;;;;;6.07;3.77;;;;;;;;;;4997861;28;20178;-88
2024/03/26 19:00:16;;;;;;;6.67;3.10;;;;;;;;;;4984719;28;20218;-87
2024/03/26 19:03:21;;;;;;;7.90;3.00;;;;;;;;;;5006830;28;20543;-88
2024/03/26 19:06:25;;;;;;;5.83;3.20;;;;;;;;;;4996420;28;20535;-88
2024/03/26 19:09:31;;;;;;;6.40;3.90;;;;;;;;;;4984793;28;20217;-88
2024/03/26 19:12:36;;;;;;;6.63;3.00;;;;;;;;;;5007319;28;20214;-88
2024/03/26 19:16:00;;;;;;;4.30;3.10;;;;;;;;;;4996334;28;20190;-88
2024/03/26 19:19:06;;;;;;;9.77;3.17;;;;;;;;;;4984678;28;20675;-88